sensor_id;sensor_type;location;lat;lon;timestamp;P1;durP1;ratioP1;P2;durP2;ratioP2
11344;SDS011;5727;42.600;23.028;2023-04-25T00:00:20;1.87;;;1.70;;
11344;SDS011;5727;42.600;23.028;2023-04-25T00:02:46;1.73;;;1.63;;
11344;SDS011;5727;42.600;23.028;2023-04-25T00:05:13;1.63;;;1.53;;
11344;SDS011;5727;42.600;23.028;2023-04-25T00:07:41;1.57;;;1.47;;
11344;SDS011;5727;42.600;23.028;2023-04-25T00:10:08;1.73;;;1.63;;
11344;SDS011;5727;42.600;23.028;2023-04-25T00:12:37;2.07;;;1.90;;
11344;SDS011;5727;42.600;23.028;2023-04-25T00:15:04;2.33;;;2.13;;
11344;SDS011;5727;42.600;23.028;2023-04-25T00:17:33;2.00;;;1.90;;
11344;SDS011;5727;42.600;23.028;2023-04-25T00:20:01;1.80;;;1.70;;
11344;SDS011;5727;42.600;23.028;2023-04-25T00:22:31;1.63;;;1.53;;
11344;SDS011;5727;42.600;23.028;2023-04-25T00:24:58;1.70;;;1.60;;
11344;SDS011;5727;42.600;23.028;2023-04-25T00:27:25;2.40;;;1.43;;
11344;SDS011;5727;42.600;23.028;2023-04-25T00:29:52;1.40;;;1.40;;
11344;SDS011;5727;42.600;23.028;2023-04-25T00:32:19;1.67;;;1.57;;
11344;SDS011;5727;42.600;23.028;2023-04-25T00:34:47;1.23;;;1.23;;
11344;SDS011;5727;42.600;23.028;2023-04-25T00:37:14;2.33;;;1.70;;
11344;SDS011;5727;42.600;23.028;2023-04-25T00:39:40;2.53;;;1.93;;
11344;SDS011;5727;42.600;23.028;2023-04-25T00:42:07;3.03;;;2.30;;
11344;SDS011;5727;42.600;23.028;2023-04-25T00:44:34;3.00;;;2.80;;
11344;SDS011;5727;42.600;23.028;2023-04-25T00:47:01;2.50;;;2.30;;
11344;SDS011;5727;42.600;23.028;2023-04-25T00:49:28;3.33;;;3.13;;
11344;SDS011;5727;42.600;23.028;2023-04-25T00:51:56;1.90;;;1.80;;
11344;SDS011;5727;42.600;23.028;2023-04-25T00:54:23;2.00;;;1.90;;
11344;SDS011;5727;42.600;23.028;2023-04-25T00:56:51;4.53;;;1.77;;
11344;SDS011;5727;42.600;23.028;2023-04-25T00:59:18;2.00;;;1.90;;
11344;SDS011;5727;42.600;23.028;2023-04-25T01:01:46;2.33;;;2.03;;
11344;SDS011;5727;42.600;23.028;2023-04-25T01:04:13;2.10;;;1.90;;
11344;SDS011;5727;42.600;23.028;2023-04-25T01:06:39;2.07;;;1.97;;
11344;SDS011;5727;42.600;23.028;2023-04-25T01:09:08;5.07;;;2.27;;
11344;SDS011;5727;42.600;23.028;2023-04-25T01:11:35;2.10;;;2.00;;
11344;SDS011;5727;42.600;23.028;2023-04-25T01:14:01;2.27;;;2.10;;
11344;SDS011;5727;42.600;23.028;2023-04-25T01:16:28;2.60;;;2.40;;
11344;SDS011;5727;42.600;23.028;2023-04-25T01:18:56;3.30;;;2.30;;
11344;SDS011;5727;42.600;23.028;2023-04-25T01:21:24;3.27;;;2.97;;
11344;SDS011;5727;42.600;23.028;2023-04-25T01:23:54;2.67;;;2.47;;
11344;SDS011;5727;42.600;23.028;2023-04-25T01:26:22;5.47;;;2.97;;
11344;SDS011;5727;42.600;23.028;2023-04-25T01:28:50;4.20;;;3.80;;
11344;SDS011;5727;42.600;23.028;2023-04-25T01:31:17;3.67;;;3.30;;
11344;SDS011;5727;42.600;23.028;2023-04-25T01:33:44;3.23;;;2.80;;
11344;SDS011;5727;42.600;23.028;2023-04-25T01:36:11;2.70;;;2.50;;
11344;SDS011;5727;42.600;23.028;2023-04-25T01:38:58;3.13;;;2.80;;
11344;SDS011;5727;42.600;23.028;2023-04-25T01:41:26;3.63;;;3.00;;
11344;SDS011;5727;42.600;23.028;2023-04-25T01:43:53;5.40;;;4.73;;
11344;SDS011;5727;42.600;23.028;2023-04-25T01:46:20;3.87;;;3.57;;
11344;SDS011;5727;42.600;23.028;2023-04-25T01:48:47;4.00;;;3.70;;
11344;SDS011;5727;42.600;23.028;2023-04-25T01:51:14;5.00;;;4.50;;
11344;SDS011;5727;42.600;23.028;2023-04-25T01:53:41;4.57;;;4.20;;
11344;SDS011;5727;42.600;23.028;2023-04-25T01:56:10;4.83;;;4.37;;
11344;SDS011;5727;42.600;23.028;2023-04-25T01:58:37;4.33;;;4.00;;
11344;SDS011;5727;42.600;23.028;2023-04-25T02:01:03;5.40;;;3.33;;
11344;SDS011;5727;42.600;23.028;2023-04-25T02:03:31;4.20;;;3.80;;
11344;SDS011;5727;42.600;23.028;2023-04-25T02:05:58;4.17;;;3.53;;
11344;SDS011;5727;42.600;23.028;2023-04-25T02:08:25;3.50;;;3.20;;
11344;SDS011;5727;42.600;23.028;2023-04-25T02:10:51;3.00;;;2.80;;
11344;SDS011;5727;42.600;23.028;2023-04-25T02:13:19;3.23;;;3.03;;
11344;SDS011;5727;42.600;23.028;2023-04-25T02:15:46;3.30;;;3.10;;
11344;SDS011;5727;42.600;23.028;2023-04-25T02:18:13;2.83;;;2.63;;
11344;SDS011;5727;42.600;23.028;2023-04-25T02:20:41;3.20;;;2.90;;
11344;SDS011;5727;42.600;23.028;2023-04-25T02:23:08;3.00;;;2.80;;
11344;SDS011;5727;42.600;23.028;2023-04-25T02:25:34;3.03;;;2.83;;
11344;SDS011;5727;42.600;23.028;2023-04-25T02:28:01;3.07;;;2.87;;
11344;SDS011;5727;42.600;23.028;2023-04-25T02:30:30;3.37;;;3.07;;
11344;SDS011;5727;42.600;23.028;2023-04-25T02:32:56;3.70;;;3.40;;
11344;SDS011;5727;42.600;23.028;2023-04-25T02:35:23;3.20;;;2.80;;
11344;SDS011;5727;42.600;23.028;2023-04-25T02:37:50;3.40;;;3.07;;
11344;SDS011;5727;42.600;23.028;2023-04-25T02:40:16;3.10;;;2.80;;
11344;SDS011;5727;42.600;23.028;2023-04-25T02:42:43;3.20;;;2.90;;
11344;SDS011;5727;42.600;23.028;2023-04-25T02:45:10;3.70;;;3.40;;
11344;SDS011;5727;42.600;23.028;2023-04-25T02:47:38;3.63;;;3.30;;
11344;SDS011;5727;42.600;23.028;2023-04-25T02:50:06;3.33;;;3.13;;
11344;SDS011;5727;42.600;23.028;2023-04-25T02:52:33;3.40;;;3.17;;
11344;SDS011;5727;42.600;23.028;2023-04-25T02:55:00;5.13;;;4.03;;
11344;SDS011;5727;42.600;23.028;2023-04-25T02:57:27;4.57;;;4.00;;
11344;SDS011;5727;42.600;23.028;2023-04-25T02:59:53;4.27;;;3.87;;
11344;SDS011;5727;42.600;23.028;2023-04-25T03:02:22;4.37;;;3.60;;
11344;SDS011;5727;42.600;23.028;2023-04-25T03:04:50;5.17;;;3.93;;
11344;SDS011;5727;42.600;23.028;2023-04-25T03:07:16;5.67;;;4.53;;
11344;SDS011;5727;42.600;23.028;2023-04-25T03:09:43;5.70;;;5.20;;
11344;SDS011;5727;42.600;23.028;2023-04-25T03:12:10;7.37;;;5.87;;
11344;SDS011;5727;42.600;23.028;2023-04-25T03:14:37;5.50;;;5.00;;
11344;SDS011;5727;42.600;23.028;2023-04-25T03:17:04;5.33;;;4.90;;
11344;SDS011;5727;42.600;23.028;2023-04-25T03:19:30;5.53;;;5.03;;
11344;SDS011;5727;42.600;23.028;2023-04-25T03:21:58;6.77;;;6.10;;
11344;SDS011;5727;42.600;23.028;2023-04-25T03:24:25;6.33;;;5.70;;
11344;SDS011;5727;42.600;23.028;2023-04-25T03:26:52;7.60;;;5.37;;
11344;SDS011;5727;42.600;23.028;2023-04-25T03:29:19;8.03;;;6.07;;
11344;SDS011;5727;42.600;23.028;2023-04-25T03:31:49;7.43;;;6.73;;
11344;SDS011;5727;42.600;23.028;2023-04-25T03:34:16;7.50;;;6.53;;
11344;SDS011;5727;42.600;23.028;2023-04-25T03:36:42;7.03;;;6.40;;
11344;SDS011;5727;42.600;23.028;2023-04-25T03:39:11;7.53;;;6.83;;
11344;SDS011;5727;42.600;23.028;2023-04-25T03:41:37;7.10;;;6.10;;
11344;SDS011;5727;42.600;23.028;2023-04-25T03:44:04;7.77;;;6.77;;
11344;SDS011;5727;42.600;23.028;2023-04-25T03:46:31;6.53;;;5.53;;
11344;SDS011;5727;42.600;23.028;2023-04-25T03:48:57;6.43;;;5.63;;
11344;SDS011;5727;42.600;23.028;2023-04-25T03:51:25;7.30;;;6.60;;
11344;SDS011;5727;42.600;23.028;2023-04-25T03:53:52;7.10;;;6.40;;
11344;SDS011;5727;42.600;23.028;2023-04-25T03:56:23;8.00;;;6.73;;
11344;SDS011;5727;42.600;23.028;2023-04-25T03:58:50;8.23;;;7.47;;
11344;SDS011;5727;42.600;23.028;2023-04-25T04:01:17;8.07;;;7.27;;
11344;SDS011;5727;42.600;23.028;2023-04-25T04:03:44;8.20;;;7.40;;
11344;SDS011;5727;42.600;23.028;2023-04-25T04:06:11;7.83;;;7.13;;
11344;SDS011;5727;42.600;23.028;2023-04-25T04:08:38;7.60;;;6.90;;
11344;SDS011;5727;42.600;23.028;2023-04-25T04:11:04;9.30;;;7.10;;
11344;SDS011;5727;42.600;23.028;2023-04-25T04:13:32;5.60;;;5.10;;
11344;SDS011;5727;42.600;23.028;2023-04-25T04:15:59;6.27;;;5.77;;
11344;SDS011;5727;42.600;23.028;2023-04-25T04:18:26;6.57;;;6.00;;
11344;SDS011;5727;42.600;23.028;2023-04-25T04:20:53;4.93;;;4.43;;
11344;SDS011;5727;42.600;23.028;2023-04-25T04:23:19;5.90;;;5.33;;
11344;SDS011;5727;42.600;23.028;2023-04-25T04:25:47;7.63;;;6.67;;
11344;SDS011;5727;42.600;23.028;2023-04-25T04:28:14;7.97;;;7.27;;
11344;SDS011;5727;42.600;23.028;2023-04-25T04:30:42;7.50;;;6.83;;
11344;SDS011;5727;42.600;23.028;2023-04-25T04:33:12;4.67;;;4.37;;
11344;SDS011;5727;42.600;23.028;2023-04-25T04:35:40;5.30;;;4.80;;
11344;SDS011;5727;42.600;23.028;2023-04-25T04:38:07;6.50;;;5.90;;
11344;SDS011;5727;42.600;23.028;2023-04-25T04:40:35;7.93;;;7.13;;
11344;SDS011;5727;42.600;23.028;2023-04-25T04:43:02;6.90;;;6.27;;
11344;SDS011;5727;42.600;23.028;2023-04-25T04:45:29;5.00;;;4.60;;
11344;SDS011;5727;42.600;23.028;2023-04-25T04:47:57;5.53;;;5.13;;
11344;SDS011;5727;42.600;23.028;2023-04-25T04:50:24;6.00;;;5.50;;
11344;SDS011;5727;42.600;23.028;2023-04-25T04:52:52;5.50;;;5.10;;
11344;SDS011;5727;42.600;23.028;2023-04-25T04:55:20;5.97;;;4.73;;
11344;SDS011;5727;42.600;23.028;2023-04-25T04:57:46;6.10;;;5.30;;
11344;SDS011;5727;42.600;23.028;2023-04-25T05:00:14;4.60;;;4.20;;
11344;SDS011;5727;42.600;23.028;2023-04-25T05:02:41;5.00;;;4.50;;
11344;SDS011;5727;42.600;23.028;2023-04-25T05:05:09;3.40;;;3.17;;
11344;SDS011;5727;42.600;23.028;2023-04-25T05:07:36;4.40;;;4.00;;
11344;SDS011;5727;42.600;23.028;2023-04-25T05:10:03;4.47;;;4.07;;
11344;SDS011;5727;42.600;23.028;2023-04-25T05:12:31;4.50;;;4.10;;
11344;SDS011;5727;42.600;23.028;2023-04-25T05:14:57;5.17;;;4.67;;
11344;SDS011;5727;42.600;23.028;2023-04-25T05:17:25;4.50;;;4.10;;
11344;SDS011;5727;42.600;23.028;2023-04-25T05:19:52;4.40;;;4.00;;
11344;SDS011;5727;42.600;23.028;2023-04-25T05:22:20;3.90;;;3.60;;
11344;SDS011;5727;42.600;23.028;2023-04-25T05:24:46;4.17;;;3.80;;
11344;SDS011;5727;42.600;23.028;2023-04-25T05:27:16;4.90;;;4.50;;
11344;SDS011;5727;42.600;23.028;2023-04-25T05:29:43;4.03;;;3.73;;
11344;SDS011;5727;42.600;23.028;2023-04-25T05:32:10;4.63;;;4.23;;
11344;SDS011;5727;42.600;23.028;2023-04-25T05:34:37;5.03;;;4.53;;
11344;SDS011;5727;42.600;23.028;2023-04-25T05:37:03;4.90;;;4.50;;
11344;SDS011;5727;42.600;23.028;2023-04-25T05:39:31;6.17;;;4.60;;
11344;SDS011;5727;42.600;23.028;2023-04-25T05:41:58;5.57;;;5.07;;
11344;SDS011;5727;42.600;23.028;2023-04-25T05:44:26;6.60;;;4.80;;
11344;SDS011;5727;42.600;23.028;2023-04-25T05:46:53;6.57;;;5.60;;
11344;SDS011;5727;42.600;23.028;2023-04-25T05:49:20;6.03;;;5.13;;
11344;SDS011;5727;42.600;23.028;2023-04-25T05:51:47;6.67;;;5.37;;
11344;SDS011;5727;42.600;23.028;2023-04-25T05:54:13;5.77;;;5.13;;
11344;SDS011;5727;42.600;23.028;2023-04-25T05:56:42;5.30;;;4.40;;
11344;SDS011;5727;42.600;23.028;2023-04-25T05:59:08;4.80;;;4.17;;
11344;SDS011;5727;42.600;23.028;2023-04-25T06:01:35;7.07;;;5.10;;
11344;SDS011;5727;42.600;23.028;2023-04-25T06:04:02;5.57;;;4.83;;
11344;SDS011;5727;42.600;23.028;2023-04-25T06:06:28;5.77;;;4.77;;
11344;SDS011;5727;42.600;23.028;2023-04-25T06:08:55;4.97;;;4.33;;
11344;SDS011;5727;42.600;23.028;2023-04-25T06:11:22;4.70;;;4.30;;
11344;SDS011;5727;42.600;23.028;2023-04-25T06:13:50;5.00;;;4.00;;
11344;SDS011;5727;42.600;23.028;2023-04-25T06:16:17;4.87;;;3.83;;
11344;SDS011;5727;42.600;23.028;2023-04-25T06:18:45;4.13;;;3.83;;
11344;SDS011;5727;42.600;23.028;2023-04-25T06:21:11;5.63;;;4.43;;
11344;SDS011;5727;42.600;23.028;2023-04-25T06:23:38;4.53;;;4.13;;
11344;SDS011;5727;42.600;23.028;2023-04-25T06:26:05;4.17;;;3.83;;
11344;SDS011;5727;42.600;23.028;2023-04-25T06:28:32;4.00;;;3.60;;
11344;SDS011;5727;42.600;23.028;2023-04-25T06:31:00;4.50;;;3.77;;
11344;SDS011;5727;42.600;23.028;2023-04-25T06:33:28;4.37;;;3.93;;
11344;SDS011;5727;42.600;23.028;2023-04-25T06:35:55;4.80;;;3.67;;
11344;SDS011;5727;42.600;23.028;2023-04-25T06:38:22;5.20;;;4.17;;
11344;SDS011;5727;42.600;23.028;2023-04-25T06:40:48;6.23;;;4.20;;
11344;SDS011;5727;42.600;23.028;2023-04-25T06:43:16;6.40;;;4.47;;
11344;SDS011;5727;42.600;23.028;2023-04-25T06:45:43;4.90;;;3.87;;
11344;SDS011;5727;42.600;23.028;2023-04-25T06:48:11;4.33;;;3.40;;
11344;SDS011;5727;42.600;23.028;2023-04-25T06:50:37;3.97;;;3.57;;
11344;SDS011;5727;42.600;23.028;2023-04-25T06:53:04;3.77;;;3.47;;
11344;SDS011;5727;42.600;23.028;2023-04-25T06:55:31;3.27;;;2.93;;
11344;SDS011;5727;42.600;23.028;2023-04-25T06:57:57;3.23;;;3.03;;
11344;SDS011;5727;42.600;23.028;2023-04-25T07:00:25;3.20;;;2.87;;
11344;SDS011;5727;42.600;23.028;2023-04-25T07:02:53;3.63;;;3.30;;
11344;SDS011;5727;42.600;23.028;2023-04-25T07:05:21;3.73;;;3.23;;
11344;SDS011;5727;42.600;23.028;2023-04-25T07:07:48;3.50;;;3.20;;
11344;SDS011;5727;42.600;23.028;2023-04-25T07:10:14;4.20;;;3.13;;
11344;SDS011;5727;42.600;23.028;2023-04-25T07:12:41;5.30;;;3.20;;
11344;SDS011;5727;42.600;23.028;2023-04-25T07:15:08;3.60;;;3.30;;
11344;SDS011;5727;42.600;23.028;2023-04-25T07:17:36;3.77;;;3.47;;
11344;SDS011;5727;42.600;23.028;2023-04-25T07:20:03;3.27;;;3.03;;
11344;SDS011;5727;42.600;23.028;2023-04-25T07:22:34;3.20;;;2.90;;
11344;SDS011;5727;42.600;23.028;2023-04-25T07:25:00;3.77;;;3.47;;
11344;SDS011;5727;42.600;23.028;2023-04-25T07:27:29;3.20;;;2.97;;
11344;SDS011;5727;42.600;23.028;2023-04-25T07:29:55;3.60;;;3.03;;
11344;SDS011;5727;42.600;23.028;2023-04-25T07:32:22;4.10;;;3.30;;
11344;SDS011;5727;42.600;23.028;2023-04-25T07:34:49;2.67;;;2.47;;
11344;SDS011;5727;42.600;23.028;2023-04-25T07:37:16;3.00;;;2.70;;
11344;SDS011;5727;42.600;23.028;2023-04-25T07:39:45;3.23;;;2.93;;
11344;SDS011;5727;42.600;23.028;2023-04-25T07:42:12;2.67;;;2.47;;
11344;SDS011;5727;42.600;23.028;2023-04-25T07:44:38;3.00;;;2.70;;
11344;SDS011;5727;42.600;23.028;2023-04-25T07:47:06;2.63;;;2.33;;
11344;SDS011;5727;42.600;23.028;2023-04-25T07:49:33;2.63;;;2.43;;
11344;SDS011;5727;42.600;23.028;2023-04-25T07:52:00;2.67;;;2.47;;
11344;SDS011;5727;42.600;23.028;2023-04-25T07:54:27;2.20;;;2.10;;
11344;SDS011;5727;42.600;23.028;2023-04-25T07:56:55;2.27;;;2.07;;
11344;SDS011;5727;42.600;23.028;2023-04-25T07:59:22;2.03;;;1.93;;
11344;SDS011;5727;42.600;23.028;2023-04-25T08:01:48;1.60;;;1.50;;
11344;SDS011;5727;42.600;23.028;2023-04-25T08:04:15;2.00;;;1.90;;
11344;SDS011;5727;42.600;23.028;2023-04-25T08:06:42;2.60;;;1.80;;
11344;SDS011;5727;42.600;23.028;2023-04-25T08:09:10;1.90;;;1.80;;
11344;SDS011;5727;42.600;23.028;2023-04-25T08:11:37;1.97;;;1.87;;
11344;SDS011;5727;42.600;23.028;2023-04-25T08:14:06;2.07;;;1.70;;
11344;SDS011;5727;42.600;23.028;2023-04-25T08:16:32;2.77;;;2.10;;
11344;SDS011;5727;42.600;23.028;2023-04-25T08:18:59;1.70;;;1.53;;
11344;SDS011;5727;42.600;23.028;2023-04-25T08:21:26;1.70;;;1.60;;
11344;SDS011;5727;42.600;23.028;2023-04-25T08:23:53;3.17;;;1.70;;
11344;SDS011;5727;42.600;23.028;2023-04-25T08:26:19;1.80;;;1.70;;
11344;SDS011;5727;42.600;23.028;2023-04-25T08:28:46;1.87;;;1.70;;
11344;SDS011;5727;42.600;23.028;2023-04-25T08:31:14;1.70;;;1.60;;
11344;SDS011;5727;42.600;23.028;2023-04-25T08:33:41;1.70;;;1.60;;
11344;SDS011;5727;42.600;23.028;2023-04-25T08:36:08;1.20;;;1.10;;
11344;SDS011;5727;42.600;23.028;2023-04-25T08:38:35;1.40;;;1.30;;
11344;SDS011;5727;42.600;23.028;2023-04-25T08:41:02;1.43;;;1.33;;
11344;SDS011;5727;42.600;23.028;2023-04-25T08:43:31;2.40;;;1.60;;
11344;SDS011;5727;42.600;23.028;2023-04-25T08:45:59;1.17;;;1.07;;
11344;SDS011;5727;42.600;23.028;2023-04-25T08:48:28;1.20;;;1.10;;
11344;SDS011;5727;42.600;23.028;2023-04-25T08:50:55;0.90;;;0.90;;
11344;SDS011;5727;42.600;23.028;2023-04-25T08:53:25;1.10;;;1.00;;
11344;SDS011;5727;42.600;23.028;2023-04-25T08:55:53;1.00;;;0.80;;
11344;SDS011;5727;42.600;23.028;2023-04-25T08:58:21;1.57;;;1.07;;
11344;SDS011;5727;42.600;23.028;2023-04-25T09:00:48;1.00;;;0.90;;
11344;SDS011;5727;42.600;23.028;2023-04-25T09:03:15;0.90;;;0.90;;
11344;SDS011;5727;42.600;23.028;2023-04-25T09:05:44;1.47;;;1.27;;
11344;SDS011;5727;42.600;23.028;2023-04-25T09:08:11;1.37;;;1.00;;
11344;SDS011;5727;42.600;23.028;2023-04-25T09:10:37;1.37;;;0.97;;
11344;SDS011;5727;42.600;23.028;2023-04-25T09:13:05;1.17;;;0.90;;
11344;SDS011;5727;42.600;23.028;2023-04-25T09:15:34;1.20;;;0.80;;
11344;SDS011;5727;42.600;23.028;2023-04-25T09:18:14;1.40;;;0.60;;
11344;SDS011;5727;42.600;23.028;2023-04-25T09:20:50;1.43;;;0.70;;
11344;SDS011;5727;42.600;23.028;2023-04-25T09:23:18;1.47;;;0.60;;
11344;SDS011;5727;42.600;23.028;2023-04-25T09:25:46;1.50;;;0.83;;
11344;SDS011;5727;42.600;23.028;2023-04-25T09:28:14;1.00;;;0.87;;
11344;SDS011;5727;42.600;23.028;2023-04-25T09:30:41;1.77;;;1.00;;
11344;SDS011;5727;42.600;23.028;2023-04-25T09:33:08;1.80;;;1.13;;
11344;SDS011;5727;42.600;23.028;2023-04-25T09:35:36;3.37;;;1.07;;
11344;SDS011;5727;42.600;23.028;2023-04-25T09:38:09;1.20;;;1.10;;
11344;SDS011;5727;42.600;23.028;2023-04-25T09:40:40;1.40;;;1.27;;
11344;SDS011;5727;42.600;23.028;2023-04-25T09:43:08;1.50;;;1.33;;
11344;SDS011;5727;42.600;23.028;2023-04-25T09:45:40;1.80;;;1.70;;
11344;SDS011;5727;42.600;23.028;2023-04-25T09:48:10;4.40;;;2.93;;
11344;SDS011;5727;42.600;23.028;2023-04-25T09:50:37;1.93;;;1.77;;
11344;SDS011;5727;42.600;23.028;2023-04-25T09:53:05;3.37;;;2.03;;
11344;SDS011;5727;42.600;23.028;2023-04-25T09:55:34;2.50;;;2.07;;
11344;SDS011;5727;42.600;23.028;2023-04-25T09:58:04;3.20;;;2.03;;
11344;SDS011;5727;42.600;23.028;2023-04-25T10:00:33;4.40;;;1.90;;
11344;SDS011;5727;42.600;23.028;2023-04-25T10:03:00;1.67;;;1.20;;
11344;SDS011;5727;42.600;23.028;2023-04-25T10:05:29;12.93;;;7.93;;
11344;SDS011;5727;42.600;23.028;2023-04-25T10:07:58;11.53;;;5.20;;
11344;SDS011;5727;42.600;23.028;2023-04-25T10:10:25;4.03;;;2.43;;
11344;SDS011;5727;42.600;23.028;2023-04-25T10:12:55;2.57;;;1.70;;
11344;SDS011;5727;42.600;23.028;2023-04-25T10:15:22;3.53;;;1.30;;
11344;SDS011;5727;42.600;23.028;2023-04-25T10:17:50;2.07;;;1.10;;
11344;SDS011;5727;42.600;23.028;2023-04-25T10:20:17;0.73;;;0.60;;
11344;SDS011;5727;42.600;23.028;2023-04-25T10:22:44;2.33;;;1.00;;
11344;SDS011;5727;42.600;23.028;2023-04-25T10:25:13;1.50;;;0.90;;
11344;SDS011;5727;42.600;23.028;2023-04-25T10:27:41;2.53;;;1.10;;
11344;SDS011;5727;42.600;23.028;2023-04-25T10:30:10;1.20;;;0.83;;
11344;SDS011;5727;42.600;23.028;2023-04-25T10:32:41;0.80;;;0.60;;
11344;SDS011;5727;42.600;23.028;2023-04-25T10:35:12;1.03;;;0.83;;
11344;SDS011;5727;42.600;23.028;2023-04-25T10:37:56;0.70;;;0.60;;
11344;SDS011;5727;42.600;23.028;2023-04-25T10:40:24;0.70;;;0.70;;
11344;SDS011;5727;42.600;23.028;2023-04-25T10:42:51;0.90;;;0.70;;
11344;SDS011;5727;42.600;23.028;2023-04-25T10:45:19;0.67;;;0.67;;
11344;SDS011;5727;42.600;23.028;2023-04-25T10:47:46;0.93;;;0.80;;
11344;SDS011;5727;42.600;23.028;2023-04-25T10:50:14;1.47;;;0.73;;
11344;SDS011;5727;42.600;23.028;2023-04-25T10:52:41;2.23;;;1.20;;
11344;SDS011;5727;42.600;23.028;2023-04-25T10:55:09;1.60;;;1.00;;
11344;SDS011;5727;42.600;23.028;2023-04-25T10:57:36;1.93;;;0.87;;
11344;SDS011;5727;42.600;23.028;2023-04-25T11:00:12;1.03;;;0.70;;
11344;SDS011;5727;42.600;23.028;2023-04-25T11:02:42;0.77;;;0.60;;
11344;SDS011;5727;42.600;23.028;2023-04-25T11:05:15;0.70;;;0.60;;
11344;SDS011;5727;42.600;23.028;2023-04-25T11:07:48;0.60;;;0.50;;
11344;SDS011;5727;42.600;23.028;2023-04-25T11:10:16;0.70;;;0.50;;
11344;SDS011;5727;42.600;23.028;2023-04-25T11:12:45;1.27;;;0.80;;
11344;SDS011;5727;42.600;23.028;2023-04-25T11:15:12;6.90;;;1.80;;
11344;SDS011;5727;42.600;23.028;2023-04-25T11:17:39;9.97;;;2.87;;
11344;SDS011;5727;42.600;23.028;2023-04-25T11:20:08;2.57;;;1.90;;
11344;SDS011;5727;42.600;23.028;2023-04-25T11:22:37;7.13;;;2.20;;
11344;SDS011;5727;42.600;23.028;2023-04-25T11:25:06;2.20;;;2.00;;
11344;SDS011;5727;42.600;23.028;2023-04-25T11:27:33;2.73;;;2.50;;
11344;SDS011;5727;42.600;23.028;2023-04-25T11:30:10;4.63;;;3.33;;
11344;SDS011;5727;42.600;23.028;2023-04-25T11:32:39;6.57;;;4.40;;
11344;SDS011;5727;42.600;23.028;2023-04-25T11:35:08;7.10;;;4.17;;
11344;SDS011;5727;42.600;23.028;2023-04-25T11:37:35;7.00;;;4.90;;
11344;SDS011;5727;42.600;23.028;2023-04-25T11:40:02;4.47;;;3.80;;
11344;SDS011;5727;42.600;23.028;2023-04-25T11:42:31;6.07;;;3.77;;
11344;SDS011;5727;42.600;23.028;2023-04-25T11:44:58;4.87;;;3.40;;
11344;SDS011;5727;42.600;23.028;2023-04-25T11:47:28;3.40;;;2.43;;
11344;SDS011;5727;42.600;23.028;2023-04-25T11:49:57;5.27;;;3.37;;
11344;SDS011;5727;42.600;23.028;2023-04-25T11:52:25;5.43;;;1.97;;
11344;SDS011;5727;42.600;23.028;2023-04-25T11:55:03;3.60;;;2.93;;
11344;SDS011;5727;42.600;23.028;2023-04-25T11:57:32;3.00;;;2.20;;
11344;SDS011;5727;42.600;23.028;2023-04-25T12:00:04;1.73;;;1.57;;
11344;SDS011;5727;42.600;23.028;2023-04-25T12:02:34;2.77;;;1.70;;
11344;SDS011;5727;42.600;23.028;2023-04-25T12:05:01;1.63;;;1.40;;
11344;SDS011;5727;42.600;23.028;2023-04-25T12:07:30;3.10;;;1.20;;
11344;SDS011;5727;42.600;23.028;2023-04-25T12:09:56;3.53;;;1.50;;
11344;SDS011;5727;42.600;23.028;2023-04-25T12:12:26;3.13;;;0.97;;
11344;SDS011;5727;42.600;23.028;2023-04-25T12:14:53;1.10;;;0.60;;
11344;SDS011;5727;42.600;23.028;2023-04-25T12:17:20;1.57;;;0.60;;
11344;SDS011;5727;42.600;23.028;2023-04-25T12:19:48;1.93;;;0.53;;
11344;SDS011;5727;42.600;23.028;2023-04-25T12:22:19;1.77;;;0.60;;
11344;SDS011;5727;42.600;23.028;2023-04-25T12:24:48;1.47;;;0.40;;
11344;SDS011;5727;42.600;23.028;2023-04-25T12:27:15;2.80;;;0.50;;
11344;SDS011;5727;42.600;23.028;2023-04-25T12:29:49;1.70;;;0.60;;
11344;SDS011;5727;42.600;23.028;2023-04-25T12:32:17;1.67;;;0.60;;
11344;SDS011;5727;42.600;23.028;2023-04-25T12:34:44;1.67;;;0.60;;
11344;SDS011;5727;42.600;23.028;2023-04-25T12:37:11;1.23;;;0.70;;
11344;SDS011;5727;42.600;23.028;2023-04-25T12:39:38;1.93;;;1.10;;
11344;SDS011;5727;42.600;23.028;2023-04-25T12:42:06;1.33;;;0.70;;
11344;SDS011;5727;42.600;23.028;2023-04-25T12:44:36;1.07;;;0.60;;
11344;SDS011;5727;42.600;23.028;2023-04-25T12:47:03;0.70;;;0.67;;
11344;SDS011;5727;42.600;23.028;2023-04-25T12:49:30;0.90;;;0.83;;
11344;SDS011;5727;42.600;23.028;2023-04-25T12:51:57;1.00;;;0.90;;
11344;SDS011;5727;42.600;23.028;2023-04-25T12:54:24;1.13;;;1.07;;
11344;SDS011;5727;42.600;23.028;2023-04-25T12:56:51;2.57;;;1.10;;
11344;SDS011;5727;42.600;23.028;2023-04-25T12:59:19;1.40;;;1.30;;
11344;SDS011;5727;42.600;23.028;2023-04-25T13:01:46;1.93;;;1.30;;
11344;SDS011;5727;42.600;23.028;2023-04-25T13:04:13;1.67;;;1.40;;
11344;SDS011;5727;42.600;23.028;2023-04-25T13:06:39;1.73;;;1.63;;
11344;SDS011;5727;42.600;23.028;2023-04-25T13:09:06;2.47;;;1.53;;
11344;SDS011;5727;42.600;23.028;2023-04-25T13:11:33;2.07;;;1.70;;
11344;SDS011;5727;42.600;23.028;2023-04-25T13:14:00;2.07;;;1.97;;
11344;SDS011;5727;42.600;23.028;2023-04-25T13:16:28;2.23;;;2.03;;
11344;SDS011;5727;42.600;23.028;2023-04-25T13:18:55;1.40;;;1.33;;
11344;SDS011;5727;42.600;23.028;2023-04-25T13:21:22;1.63;;;1.53;;
11344;SDS011;5727;42.600;23.028;2023-04-25T13:23:50;3.07;;;2.10;;
11344;SDS011;5727;42.600;23.028;2023-04-25T13:26:17;1.90;;;1.80;;
11344;SDS011;5727;42.600;23.028;2023-04-25T13:28:44;1.67;;;1.57;;
11344;SDS011;5727;42.600;23.028;2023-04-25T13:31:11;1.57;;;1.47;;
11344;SDS011;5727;42.600;23.028;2023-04-25T13:33:43;1.80;;;1.70;;
11344;SDS011;5727;42.600;23.028;2023-04-25T13:36:10;1.50;;;1.40;;
11344;SDS011;5727;42.600;23.028;2023-04-25T13:38:36;1.60;;;1.33;;
11344;SDS011;5727;42.600;23.028;2023-04-25T13:41:04;2.83;;;1.40;;
11344;SDS011;5727;42.600;23.028;2023-04-25T13:43:32;1.83;;;1.17;;
11344;SDS011;5727;42.600;23.028;2023-04-25T13:45:59;1.13;;;1.07;;
11344;SDS011;5727;42.600;23.028;2023-04-25T13:48:26;1.17;;;1.10;;
11344;SDS011;5727;42.600;23.028;2023-04-25T13:50:54;1.20;;;1.10;;
11344;SDS011;5727;42.600;23.028;2023-04-25T13:53:20;0.80;;;0.80;;
11344;SDS011;5727;42.600;23.028;2023-04-25T13:55:47;1.03;;;0.90;;
11344;SDS011;5727;42.600;23.028;2023-04-25T13:58:14;1.00;;;0.80;;
11344;SDS011;5727;42.600;23.028;2023-04-25T14:00:40;0.67;;;0.60;;
11344;SDS011;5727;42.600;23.028;2023-04-25T14:03:08;1.00;;;0.90;;
11344;SDS011;5727;42.600;23.028;2023-04-25T14:05:35;0.60;;;0.57;;
11344;SDS011;5727;42.600;23.028;2023-04-25T14:08:06;1.00;;;0.87;;
11344;SDS011;5727;42.600;23.028;2023-04-25T14:10:33;1.07;;;0.80;;
11344;SDS011;5727;42.600;23.028;2023-04-25T14:13:00;3.33;;;2.00;;
11344;SDS011;5727;42.600;23.028;2023-04-25T14:15:28;3.13;;;2.00;;
11344;SDS011;5727;42.600;23.028;2023-04-25T14:17:55;3.87;;;2.10;;
11344;SDS011;5727;42.600;23.028;2023-04-25T14:20:22;2.40;;;2.13;;
11344;SDS011;5727;42.600;23.028;2023-04-25T14:22:49;2.83;;;1.60;;
11344;SDS011;5727;42.600;23.028;2023-04-25T14:25:17;2.50;;;2.30;;
11344;SDS011;5727;42.600;23.028;2023-04-25T14:27:43;2.33;;;1.77;;
11344;SDS011;5727;42.600;23.028;2023-04-25T14:30:14;2.77;;;2.03;;
11344;SDS011;5727;42.600;23.028;2023-04-25T14:32:41;3.70;;;2.60;;
11344;SDS011;5727;42.600;23.028;2023-04-25T14:35:08;2.40;;;2.17;;
11344;SDS011;5727;42.600;23.028;2023-04-25T14:37:35;2.57;;;2.37;;
11344;SDS011;5727;42.600;23.028;2023-04-25T14:40:02;2.73;;;2.50;;
11344;SDS011;5727;42.600;23.028;2023-04-25T14:42:31;2.73;;;2.43;;
11344;SDS011;5727;42.600;23.028;2023-04-25T14:44:59;2.73;;;2.30;;
11344;SDS011;5727;42.600;23.028;2023-04-25T14:47:25;2.47;;;2.13;;
11344;SDS011;5727;42.600;23.028;2023-04-25T14:49:52;2.90;;;2.50;;